sensor_id;sensor_type;location;lat;lon;timestamp;P1;durP1;ratioP1;P2;durP2;ratioP2
23718;SDS011;43322;52.230;5.702;2023-02-28T00:01:22;5.25;;;3.10;;
23718;SDS011;43322;52.230;5.702;2023-02-28T00:03:50;3.47;;;3.17;;
23718;SDS011;43322;52.230;5.702;2023-02-28T00:06:17;3.88;;;3.10;;
23718;SDS011;43322;52.230;5.702;2023-02-28T00:08:44;3.53;;;3.30;;
23718;SDS011;43322;52.230;5.702;2023-02-28T00:11:12;4.72;;;3.30;;
23718;SDS011;43322;52.230;5.702;2023-02-28T00:13:41;4.25;;;3.47;;
23718;SDS011;43322;52.230;5.702;2023-02-28T00:16:12;3.35;;;2.72;;
23718;SDS011;43322;52.230;5.702;2023-02-28T00:18:40;3.00;;;2.80;;
23718;SDS011;43322;52.230;5.702;2023-02-28T00:21:08;3.03;;;2.83;;
23718;SDS011;43322;52.230;5.702;2023-02-28T00:23:35;3.83;;;3.05;;
23718;SDS011;43322;52.230;5.702;2023-02-28T00:26:02;7.03;;;3.53;;
23718;SDS011;43322;52.230;5.702;2023-02-28T00:28:29;3.70;;;3.40;;
23718;SDS011;43322;52.230;5.702;2023-02-28T00:30:56;4.38;;;3.38;;
23718;SDS011;43322;52.230;5.702;2023-02-28T00:33:24;3.70;;;3.28;;
23718;SDS011;43322;52.230;5.702;2023-02-28T00:35:52;3.50;;;3.20;;
23718;SDS011;43322;52.230;5.702;2023-02-28T00:38:28;3.75;;;3.33;;
23718;SDS011;43322;52.230;5.702;2023-02-28T00:40:54;3.63;;;3.20;;
23718;SDS011;43322;52.230;5.702;2023-02-28T00:43:21;3.65;;;2.97;;
23718;SDS011;43322;52.230;5.702;2023-02-28T00:45:48;3.30;;;3.10;;
23718;SDS011;43322;52.230;5.702;2023-02-28T00:48:15;5.53;;;3.22;;
23718;SDS011;43322;52.230;5.702;2023-02-28T00:50:42;5.43;;;3.30;;
23718;SDS011;43322;52.230;5.702;2023-02-28T00:53:09;5.75;;;3.30;;
23718;SDS011;43322;52.230;5.702;2023-02-28T00:55:37;4.05;;;3.10;;
23718;SDS011;43322;52.230;5.702;2023-02-28T00:58:04;4.50;;;3.42;;
23718;SDS011;43322;52.230;5.702;2023-02-28T01:00:30;6.25;;;3.20;;
23718;SDS011;43322;52.230;5.702;2023-02-28T01:02:57;3.75;;;3.35;;
23718;SDS011;43322;52.230;5.702;2023-02-28T01:05:24;3.50;;;3.00;;
23718;SDS011;43322;52.230;5.702;2023-02-28T01:07:50;3.25;;;2.92;;
23718;SDS011;43322;52.230;5.702;2023-02-28T01:10:17;6.18;;;3.38;;
23718;SDS011;43322;52.230;5.702;2023-02-28T01:12:47;4.38;;;3.53;;
23718;SDS011;43322;52.230;5.702;2023-02-28T01:15:13;5.68;;;3.40;;
23718;SDS011;43322;52.230;5.702;2023-02-28T01:17:40;3.95;;;3.42;;
23718;SDS011;43322;52.230;5.702;2023-02-28T01:20:07;4.32;;;3.50;;
23718;SDS011;43322;52.230;5.702;2023-02-28T01:22:35;3.35;;;3.15;;
23718;SDS011;43322;52.230;5.702;2023-02-28T01:25:02;3.83;;;3.10;;
23718;SDS011;43322;52.230;5.702;2023-02-28T01:27:29;4.82;;;3.58;;
23718;SDS011;43322;52.230;5.702;2023-02-28T01:29:58;3.60;;;3.30;;
23718;SDS011;43322;52.230;5.702;2023-02-28T01:32:24;3.58;;;3.28;;
23718;SDS011;43322;52.230;5.702;2023-02-28T01:34:51;3.95;;;3.65;;
23718;SDS011;43322;52.230;5.702;2023-02-28T01:37:18;7.30;;;3.97;;
23718;SDS011;43322;52.230;5.702;2023-02-28T01:39:45;4.15;;;3.28;;
23718;SDS011;43322;52.230;5.702;2023-02-28T01:42:11;4.10;;;3.80;;
23718;SDS011;43322;52.230;5.702;2023-02-28T01:45:14;7.65;;;3.63;;
23718;SDS011;43322;52.230;5.702;2023-02-28T01:47:46;4.60;;;3.75;;
23718;SDS011;43322;52.230;5.702;2023-02-28T01:50:16;4.40;;;3.30;;
23718;SDS011;43322;52.230;5.702;2023-02-28T01:52:46;4.18;;;3.40;;
23718;SDS011;43322;52.230;5.702;2023-02-28T01:55:14;3.92;;;3.60;;
23718;SDS011;43322;52.230;5.702;2023-02-28T01:57:43;4.72;;;3.13;;
23718;SDS011;43322;52.230;5.702;2023-02-28T02:00:16;4.65;;;3.47;;
23718;SDS011;43322;52.230;5.702;2023-02-28T02:02:48;5.78;;;3.50;;
23718;SDS011;43322;52.230;5.702;2023-02-28T02:05:19;3.35;;;3.05;;
23718;SDS011;43322;52.230;5.702;2023-02-28T02:07:49;3.63;;;3.20;;
23718;SDS011;43322;52.230;5.702;2023-02-28T02:10:19;4.53;;;3.35;;
23718;SDS011;43322;52.230;5.702;2023-02-28T02:13:00;4.95;;;3.33;;
23718;SDS011;43322;52.230;5.702;2023-02-28T02:15:39;4.82;;;3.05;;
23718;SDS011;43322;52.230;5.702;2023-02-28T02:18:09;3.65;;;3.35;;
23718;SDS011;43322;52.230;5.702;2023-02-28T02:26:58;3.53;;;3.22;;
23718;SDS011;43322;52.230;5.702;2023-02-28T02:35:49;3.67;;;3.38;;
23718;SDS011;43322;52.230;5.702;2023-02-28T02:38:23;4.07;;;3.75;;
23718;SDS011;43322;52.230;5.702;2023-02-28T02:40:59;4.70;;;3.58;;
23718;SDS011;43322;52.230;5.702;2023-02-28T02:43:35;9.25;;;4.07;;
23718;SDS011;43322;52.230;5.702;2023-02-28T02:46:08;8.55;;;4.50;;
23718;SDS011;43322;52.230;5.702;2023-02-28T02:48:40;4.85;;;3.88;;
23718;SDS011;43322;52.230;5.702;2023-02-28T02:51:11;4.50;;;4.10;;
23718;SDS011;43322;52.230;5.702;2023-02-28T02:53:42;3.90;;;3.60;;
23718;SDS011;43322;52.230;5.702;2023-02-28T02:56:14;6.50;;;3.92;;
23718;SDS011;43322;52.230;5.702;2023-02-28T02:58:45;4.68;;;4.22;;
23718;SDS011;43322;52.230;5.702;2023-02-28T03:01:16;5.93;;;4.13;;
23718;SDS011;43322;52.230;5.702;2023-02-28T03:03:53;4.40;;;4.10;;
23718;SDS011;43322;52.230;5.702;2023-02-28T03:06:23;3.97;;;3.67;;
23718;SDS011;43322;52.230;5.702;2023-02-28T03:08:50;4.35;;;3.95;;
23718;SDS011;43322;52.230;5.702;2023-02-28T03:11:17;4.80;;;4.35;;
23718;SDS011;43322;52.230;5.702;2023-02-28T03:13:57;4.30;;;4.00;;
23718;SDS011;43322;52.230;5.702;2023-02-28T03:16:36;6.45;;;4.10;;
23718;SDS011;43322;52.230;5.702;2023-02-28T03:19:28;4.80;;;4.10;;
23718;SDS011;43322;52.230;5.702;2023-02-28T03:22:06;4.38;;;4.05;;
23718;SDS011;43322;52.230;5.702;2023-02-28T03:24:45;5.38;;;4.80;;
23718;SDS011;43322;52.230;5.702;2023-02-28T03:27:21;5.95;;;4.38;;
23718;SDS011;43322;52.230;5.702;2023-02-28T03:29:53;7.53;;;4.95;;
23718;SDS011;43322;52.230;5.702;2023-02-28T03:32:27;7.07;;;4.28;;
23718;SDS011;43322;52.230;5.702;2023-02-28T03:35:00;5.90;;;4.20;;
23718;SDS011;43322;52.230;5.702;2023-02-28T03:37:34;7.22;;;4.82;;
23718;SDS011;43322;52.230;5.702;2023-02-28T03:40:05;7.13;;;4.72;;
23718;SDS011;43322;52.230;5.702;2023-02-28T03:42:38;8.10;;;5.25;;
23718;SDS011;43322;52.230;5.702;2023-02-28T03:45:10;5.10;;;4.65;;
23718;SDS011;43322;52.230;5.702;2023-02-28T03:47:41;6.57;;;4.60;;
23718;SDS011;43322;52.230;5.702;2023-02-28T03:50:13;4.68;;;3.95;;
23718;SDS011;43322;52.230;5.702;2023-02-28T03:52:47;4.10;;;3.80;;
23718;SDS011;43322;52.230;5.702;2023-02-28T03:55:17;4.60;;;4.20;;
23718;SDS011;43322;52.230;5.702;2023-02-28T03:57:47;4.38;;;3.97;;
23718;SDS011;43322;52.230;5.702;2023-02-28T04:00:25;6.05;;;4.57;;
23718;SDS011;43322;52.230;5.702;2023-02-28T04:02:54;4.78;;;4.38;;
23718;SDS011;43322;52.230;5.702;2023-02-28T04:05:21;5.10;;;4.70;;
23718;SDS011;43322;52.230;5.702;2023-02-28T04:07:50;5.32;;;4.40;;
23718;SDS011;43322;52.230;5.702;2023-02-28T04:10:17;5.20;;;4.70;;
23718;SDS011;43322;52.230;5.702;2023-02-28T04:12:44;4.85;;;4.35;;
23718;SDS011;43322;52.230;5.702;2023-02-28T04:15:11;4.88;;;4.40;;
23718;SDS011;43322;52.230;5.702;2023-02-28T04:17:38;5.85;;;4.80;;
23718;SDS011;43322;52.230;5.702;2023-02-28T04:20:05;10.75;;;4.82;;
23718;SDS011;43322;52.230;5.702;2023-02-28T04:22:34;5.13;;;4.68;;
23718;SDS011;43322;52.230;5.702;2023-02-28T04:25:04;4.78;;;4.38;;
23718;SDS011;43322;52.230;5.702;2023-02-28T04:27:32;8.32;;;5.20;;
23718;SDS011;43322;52.230;5.702;2023-02-28T04:29:59;4.57;;;4.18;;
23718;SDS011;43322;52.230;5.702;2023-02-28T04:32:25;4.20;;;3.90;;
23718;SDS011;43322;52.230;5.702;2023-02-28T04:34:52;6.40;;;4.00;;
23718;SDS011;43322;52.230;5.702;2023-02-28T04:37:19;6.47;;;3.80;;
23718;SDS011;43322;52.230;5.702;2023-02-28T04:39:52;4.32;;;3.92;;
23718;SDS011;43322;52.230;5.702;2023-02-28T04:42:20;5.05;;;3.72;;
23718;SDS011;43322;52.230;5.702;2023-02-28T04:44:47;3.30;;;3.00;;
23718;SDS011;43322;52.230;5.702;2023-02-28T04:47:14;3.83;;;3.35;;
23718;SDS011;43322;52.230;5.702;2023-02-28T04:49:41;3.22;;;2.97;;
23718;SDS011;43322;52.230;5.702;2023-02-28T04:52:07;4.80;;;3.38;;
23718;SDS011;43322;52.230;5.702;2023-02-28T04:54:35;3.80;;;3.40;;
23718;SDS011;43322;52.230;5.702;2023-02-28T04:57:03;3.42;;;3.20;;
23718;SDS011;43322;52.230;5.702;2023-02-28T04:59:32;3.30;;;3.00;;
23718;SDS011;43322;52.230;5.702;2023-02-28T05:01:59;4.65;;;3.08;;
23718;SDS011;43322;52.230;5.702;2023-02-28T05:04:31;3.10;;;2.90;;
23718;SDS011;43322;52.230;5.702;2023-02-28T05:06:59;2.80;;;2.60;;
23718;SDS011;43322;52.230;5.702;2023-02-28T05:09:26;3.17;;;2.97;;
23718;SDS011;43322;52.230;5.702;2023-02-28T05:11:53;3.42;;;2.70;;
23718;SDS011;43322;52.230;5.702;2023-02-28T05:14:20;3.85;;;3.20;;
23718;SDS011;43322;52.230;5.702;2023-02-28T05:16:48;3.13;;;2.85;;
23718;SDS011;43322;52.230;5.702;2023-02-28T05:19:15;4.00;;;3.35;;
23718;SDS011;43322;52.230;5.702;2023-02-28T05:21:47;3.78;;;3.58;;
23718;SDS011;43322;52.230;5.702;2023-02-28T05:24:16;3.95;;;3.30;;
23718;SDS011;43322;52.230;5.702;2023-02-28T05:26:47;3.30;;;3.00;;
23718;SDS011;43322;52.230;5.702;2023-02-28T05:29:16;3.65;;;3.28;;
23718;SDS011;43322;52.230;5.702;2023-02-28T05:31:43;2.95;;;2.75;;
23718;SDS011;43322;52.230;5.702;2023-02-28T05:34:11;3.50;;;3.28;;
23718;SDS011;43322;52.230;5.702;2023-02-28T05:36:40;3.45;;;3.25;;
23718;SDS011;43322;52.230;5.702;2023-02-28T05:39:07;3.33;;;3.03;;
23718;SDS011;43322;52.230;5.702;2023-02-28T05:41:37;4.03;;;3.70;;
23718;SDS011;43322;52.230;5.702;2023-02-28T05:44:05;3.13;;;2.95;;
23718;SDS011;43322;52.230;5.702;2023-02-28T05:46:32;3.35;;;3.15;;
23718;SDS011;43322;52.230;5.702;2023-02-28T05:48:59;3.88;;;3.58;;
23718;SDS011;43322;52.230;5.702;2023-02-28T05:51:27;4.30;;;4.00;;
23718;SDS011;43322;52.230;5.702;2023-02-28T05:53:54;3.63;;;3.40;;
23718;SDS011;43322;52.230;5.702;2023-02-28T05:56:21;3.17;;;2.97;;
23718;SDS011;43322;52.230;5.702;2023-02-28T05:58:48;3.72;;;3.50;;
23718;SDS011;43322;52.230;5.702;2023-02-28T06:01:19;3.63;;;3.42;;
23718;SDS011;43322;52.230;5.702;2023-02-28T06:03:48;3.90;;;3.70;;
23718;SDS011;43322;52.230;5.702;2023-02-28T06:06:14;3.88;;;3.58;;
23718;SDS011;43322;52.230;5.702;2023-02-28T06:08:43;4.15;;;3.85;;
23718;SDS011;43322;52.230;5.702;2023-02-28T06:11:10;3.83;;;3.53;;
23718;SDS011;43322;52.230;5.702;2023-02-28T06:13:37;3.60;;;3.38;;
23718;SDS011;43322;52.230;5.702;2023-02-28T06:16:05;4.43;;;3.63;;
23718;SDS011;43322;52.230;5.702;2023-02-28T06:18:32;4.10;;;3.80;;
23718;SDS011;43322;52.230;5.702;2023-02-28T06:20:59;4.40;;;4.13;;
23718;SDS011;43322;52.230;5.702;2023-02-28T06:23:26;4.40;;;4.10;;
23718;SDS011;43322;52.230;5.702;2023-02-28T06:25:54;4.03;;;3.70;;
23718;SDS011;43322;52.230;5.702;2023-02-28T06:28:23;4.30;;;3.97;;
23718;SDS011;43322;52.230;5.702;2023-02-28T06:30:50;5.72;;;3.65;;
23718;SDS011;43322;52.230;5.702;2023-02-28T06:33:17;4.35;;;4.03;;
23718;SDS011;43322;52.230;5.702;2023-02-28T06:35:44;4.00;;;3.80;;
23718;SDS011;43322;52.230;5.702;2023-02-28T06:38:12;4.55;;;4.07;;
23718;SDS011;43322;52.230;5.702;2023-02-28T06:40:38;4.25;;;3.92;;
23718;SDS011;43322;52.230;5.702;2023-02-28T06:43:07;4.35;;;3.97;;
23718;SDS011;43322;52.230;5.702;2023-02-28T06:45:33;4.75;;;4.28;;
23718;SDS011;43322;52.230;5.702;2023-02-28T06:48:00;4.30;;;4.07;;
23718;SDS011;43322;52.230;5.702;2023-02-28T06:50:27;4.30;;;4.10;;
23718;SDS011;43322;52.230;5.702;2023-02-28T06:52:55;4.25;;;3.90;;
23718;SDS011;43322;52.230;5.702;2023-02-28T06:55:22;4.40;;;4.15;;
23718;SDS011;43322;52.230;5.702;2023-02-28T06:57:49;4.50;;;4.10;;
23718;SDS011;43322;52.230;5.702;2023-02-28T07:00:18;6.50;;;4.43;;
23718;SDS011;43322;52.230;5.702;2023-02-28T07:02:45;4.57;;;4.05;;
23718;SDS011;43322;52.230;5.702;2023-02-28T07:05:13;4.65;;;4.25;;
23718;SDS011;43322;52.230;5.702;2023-02-28T07:07:40;4.20;;;3.92;;
23718;SDS011;43322;52.230;5.702;2023-02-28T07:10:09;4.07;;;3.88;;
23718;SDS011;43322;52.230;5.702;2023-02-28T07:12:37;4.63;;;4.32;;
23718;SDS011;43322;52.230;5.702;2023-02-28T07:15:05;4.28;;;4.07;;
23718;SDS011;43322;52.230;5.702;2023-02-28T07:17:34;5.00;;;4.50;;
23718;SDS011;43322;52.230;5.702;2023-02-28T07:20:01;4.93;;;4.53;;
23718;SDS011;43322;52.230;5.702;2023-02-28T07:22:29;5.38;;;4.97;;
23718;SDS011;43322;52.230;5.702;2023-02-28T07:24:56;5.10;;;4.75;;
23718;SDS011;43322;52.230;5.702;2023-02-28T07:27:23;4.88;;;4.47;;
23718;SDS011;43322;52.230;5.702;2023-02-28T07:29:50;5.25;;;4.85;;
23718;SDS011;43322;52.230;5.702;2023-02-28T07:32:17;5.55;;;4.85;;
23718;SDS011;43322;52.230;5.702;2023-02-28T07:34:45;4.85;;;4.45;;
23718;SDS011;43322;52.230;5.702;2023-02-28T07:37:13;4.35;;;4.15;;
23718;SDS011;43322;52.230;5.702;2023-02-28T07:39:40;4.35;;;4.10;;
23718;SDS011;43322;52.230;5.702;2023-02-28T07:42:08;5.32;;;4.63;;
23718;SDS011;43322;52.230;5.702;2023-02-28T07:47:07;5.47;;;4.45;;
23718;SDS011;43322;52.230;5.702;2023-02-28T07:49:34;5.13;;;4.72;;
23718;SDS011;43322;52.230;5.702;2023-02-28T07:52:03;5.97;;;5.50;;
23718;SDS011;43322;52.230;5.702;2023-02-28T07:54:31;5.45;;;5.00;;
23718;SDS011;43322;52.230;5.702;2023-02-28T07:56:58;4.93;;;4.43;;
23718;SDS011;43322;52.230;5.702;2023-02-28T07:59:25;4.63;;;4.18;;
23718;SDS011;43322;52.230;5.702;2023-02-28T08:01:52;7.95;;;4.13;;
23718;SDS011;43322;52.230;5.702;2023-02-28T08:04:19;4.80;;;4.40;;
23718;SDS011;43322;52.230;5.702;2023-02-28T08:06:46;5.88;;;3.95;;
23718;SDS011;43322;52.230;5.702;2023-02-28T08:09:14;4.93;;;4.43;;
23718;SDS011;43322;52.230;5.702;2023-02-28T08:11:41;5.38;;;4.97;;
23718;SDS011;43322;52.230;5.702;2023-02-28T08:14:08;5.75;;;5.35;;
23718;SDS011;43322;52.230;5.702;2023-02-28T08:19:05;4.20;;;3.90;;
23718;SDS011;43322;52.230;5.702;2023-02-28T08:21:32;4.60;;;4.13;;
23718;SDS011;43322;52.230;5.702;2023-02-28T08:23:59;5.03;;;4.57;;
23718;SDS011;43322;52.230;5.702;2023-02-28T08:26:27;6.30;;;4.25;;
23718;SDS011;43322;52.230;5.702;2023-02-28T08:28:54;4.63;;;4.22;;
23718;SDS011;43322;52.230;5.702;2023-02-28T08:31:21;4.90;;;4.43;;
23718;SDS011;43322;52.230;5.702;2023-02-28T08:33:48;4.30;;;4.00;;
23718;SDS011;43322;52.230;5.702;2023-02-28T08:36:16;4.60;;;4.20;;
23718;SDS011;43322;52.230;5.702;2023-02-28T08:38:43;3.92;;;3.60;;
23718;SDS011;43322;52.230;5.702;2023-02-28T08:41:11;3.45;;;3.25;;
23718;SDS011;43322;52.230;5.702;2023-02-28T08:43:40;3.63;;;3.33;;
23718;SDS011;43322;52.230;5.702;2023-02-28T08:46:07;3.35;;;3.15;;
23718;SDS011;43322;52.230;5.702;2023-02-28T08:48:36;3.60;;;3.30;;
23718;SDS011;43322;52.230;5.702;2023-02-28T08:51:04;2.95;;;2.75;;
23718;SDS011;43322;52.230;5.702;2023-02-28T08:53:34;2.25;;;2.15;;
23718;SDS011;43322;52.230;5.702;2023-02-28T08:56:02;4.40;;;2.17;;
23718;SDS011;43322;52.230;5.702;2023-02-28T08:58:31;1.80;;;1.70;;
23718;SDS011;43322;52.230;5.702;2023-02-28T09:01:00;1.70;;;1.60;;
23718;SDS011;43322;52.230;5.702;2023-02-28T09:03:34;1.73;;;1.23;;
23718;SDS011;43322;52.230;5.702;2023-02-28T09:06:01;1.23;;;1.23;;
23718;SDS011;43322;52.230;5.702;2023-02-28T09:08:29;1.23;;;1.15;;
23718;SDS011;43322;52.230;5.702;2023-02-28T09:10:56;0.82;;;0.82;;
23718;SDS011;43322;52.230;5.702;2023-02-28T09:13:24;0.90;;;0.90;;
23718;SDS011;43322;52.230;5.702;2023-02-28T09:15:52;1.10;;;1.10;;
23718;SDS011;43322;52.230;5.702;2023-02-28T09:18:21;1.70;;;1.42;;
23718;SDS011;43322;52.230;5.702;2023-02-28T09:20:48;2.80;;;1.00;;
23718;SDS011;43322;52.230;5.702;2023-02-28T09:23:15;1.15;;;1.15;;
23718;SDS011;43322;52.230;5.702;2023-02-28T09:25:46;1.45;;;1.20;;
23718;SDS011;43322;52.230;5.702;2023-02-28T09:28:13;1.00;;;0.90;;
23718;SDS011;43322;52.230;5.702;2023-02-28T09:30:41;1.27;;;1.17;;
23718;SDS011;43322;52.230;5.702;2023-02-28T09:33:08;1.30;;;1.30;;
23718;SDS011;43322;52.230;5.702;2023-02-28T09:35:37;1.13;;;0.95;;
23718;SDS011;43322;52.230;5.702;2023-02-28T09:38:04;1.02;;;1.02;;
23718;SDS011;43322;52.230;5.702;2023-02-28T09:40:34;1.25;;;1.00;;
23718;SDS011;43322;52.230;5.702;2023-02-28T09:43:03;1.10;;;1.10;;
23718;SDS011;43322;52.230;5.702;2023-02-28T09:45:32;1.27;;;1.00;;
23718;SDS011;43322;52.230;5.702;2023-02-28T09:48:03;1.35;;;1.25;;
23718;SDS011;43322;52.230;5.702;2023-02-28T09:50:38;2.05;;;1.40;;
23718;SDS011;43322;52.230;5.702;2023-02-28T09:53:11;1.20;;;1.10;;
23718;SDS011;43322;52.230;5.702;2023-02-28T09:55:45;1.38;;;1.33;;
23718;SDS011;43322;52.230;5.702;2023-02-28T09:58:17;1.10;;;1.10;;
23718;SDS011;43322;52.230;5.702;2023-02-28T10:00:51;1.58;;;1.48;;
23718;SDS011;43322;52.230;5.702;2023-02-28T10:03:27;1.50;;;1.40;;
23718;SDS011;43322;52.230;5.702;2023-02-28T10:06:01;1.40;;;1.40;;
23718;SDS011;43322;52.230;5.702;2023-02-28T10:08:36;2.55;;;1.60;;
23718;SDS011;43322;52.230;5.702;2023-02-28T10:11:10;1.30;;;1.30;;
23718;SDS011;43322;52.230;5.702;2023-02-28T10:13:45;1.58;;;1.48;;
23718;SDS011;43322;52.230;5.702;2023-02-28T10:16:21;2.60;;;1.55;;
23718;SDS011;43322;52.230;5.702;2023-02-28T10:18:57;1.63;;;1.50;;
23718;SDS011;43322;52.230;5.702;2023-02-28T10:21:30;1.67;;;1.58;;
23718;SDS011;43322;52.230;5.702;2023-02-28T10:24:03;1.30;;;1.30;;
23718;SDS011;43322;52.230;5.702;2023-02-28T10:26:37;1.63;;;1.52;;
23718;SDS011;43322;52.230;5.702;2023-02-28T10:29:07;1.55;;;1.30;;
23718;SDS011;43322;52.230;5.702;2023-02-28T10:31:35;1.00;;;1.00;;
23718;SDS011;43322;52.230;5.702;2023-02-28T10:34:03;2.45;;;1.40;;
23718;SDS011;43322;52.230;5.702;2023-02-28T10:36:32;1.38;;;1.38;;
23718;SDS011;43322;52.230;5.702;2023-02-28T10:39:01;1.60;;;1.50;;
23718;SDS011;43322;52.230;5.702;2023-02-28T10:42:00;1.38;;;1.27;;
23718;SDS011;43322;52.230;5.702;2023-02-28T10:44:27;1.30;;;1.10;;
23718;SDS011;43322;52.230;5.702;2023-02-28T10:46:57;1.25;;;1.20;;
23718;SDS011;43322;52.230;5.702;2023-02-28T10:49:25;1.38;;;1.27;;
23718;SDS011;43322;52.230;5.702;2023-02-28T10:51:55;1.95;;;1.35;;
23718;SDS011;43322;52.230;5.702;2023-02-28T10:54:26;1.40;;;1.30;;
23718;SDS011;43322;52.230;5.702;2023-02-28T10:57:05;1.55;;;1.40;;
23718;SDS011;43322;52.230;5.702;2023-02-28T10:59:42;1.50;;;1.40;;
23718;SDS011;43322;52.230;5.702;2023-02-28T11:07:59;1.30;;;1.30;;
23718;SDS011;43322;52.230;5.702;2023-02-28T11:10:31;1.90;;;1.70;;
23718;SDS011;43322;52.230;5.702;2023-02-28T11:13:00;1.48;;;1.35;;
23718;SDS011;43322;52.230;5.702;2023-02-28T11:15:29;1.55;;;1.30;;
23718;SDS011;43322;52.230;5.702;2023-02-28T11:17:59;1.60;;;1.50;;
23718;SDS011;43322;52.230;5.702;2023-02-28T11:20:29;1.55;;;1.48;;
23718;SDS011;43322;52.230;5.702;2023-02-28T11:23:00;1.60;;;1.50;;
23718;SDS011;43322;52.230;5.702;2023-02-28T11:25:29;2.00;;;1.48;;
23718;SDS011;43322;52.230;5.702;2023-02-28T11:27:59;1.75;;;1.50;;
23718;SDS011;43322;52.230;5.702;2023-02-28T11:30:31;1.25;;;1.17;;
23718;SDS011;43322;52.230;5.702;2023-02-28T11:33:00;2.15;;;1.60;;
23718;SDS011;43322;52.230;5.702;2023-02-28T11:35:44;1.30;;;1.20;;
23718;SDS011;43322;52.230;5.702;2023-02-28T11:38:13;2.58;;;1.30;;
23718;SDS011;43322;52.230;5.702;2023-02-28T11:40:42;1.35;;;1.33;;
23718;SDS011;43322;52.230;5.702;2023-02-28T11:43:17;1.20;;;1.20;;
23718;SDS011;43322;52.230;5.702;2023-02-28T11:45:57;1.55;;;1.45;;
23718;SDS011;43322;52.230;5.702;2023-02-28T11:48:38;1.52;;;1.40;;
23718;SDS011;43322;52.230;5.702;2023-02-28T11:51:12;1.30;;;1.30;;
23718;SDS011;43322;52.230;5.702;2023-02-28T11:53:50;1.67;;;1.27;;
23718;SDS011;43322;52.230;5.702;2023-02-28T11:56:24;1.50;;;1.48;;
23718;SDS011;43322;52.230;5.702;2023-02-28T11:59:00;1.55;;;1.45;;
23718;SDS011;43322;52.230;5.702;2023-02-28T12:04:12;1.42;;;1.40;;
23718;SDS011;43322;52.230;5.702;2023-02-28T12:06:48;1.65;;;1.55;;
23718;SDS011;43322;52.230;5.702;2023-02-28T12:09:33;1.15;;;1.15;;
23718;SDS011;43322;52.230;5.702;2023-02-28T12:12:13;1.67;;;1.58;;
23718;SDS011;43322;52.230;5.702;2023-02-28T12:14:57;1.75;;;1.65;;
23718;SDS011;43322;52.230;5.702;2023-02-28T12:17:55;1.98;;;1.67;;
23718;SDS011;43322;52.230;5.702;2023-02-28T12:20:34;1.38;;;1.38;;
23718;SDS011;43322;52.230;5.702;2023-02-28T12:23:10;1.52;;;1.42;;
23718;SDS011;43322;52.230;5.702;2023-02-28T12:26:09;1.45;;;1.45;;
23718;SDS011;43322;52.230;5.702;2023-02-28T12:28:43;1.20;;;1.20;;
23718;SDS011;43322;52.230;5.702;2023-02-28T12:33:43;1.52;;;1.42;;
23718;SDS011;43322;52.230;5.702;2023-02-28T12:36:14;2.10;;;1.95;;
23718;SDS011;43322;52.230;5.702;2023-02-28T12:38:47;1.60;;;1.50;;
23718;SDS011;43322;52.230;5.702;2023-02-28T12:41:19;1.38;;;1.38;;
23718;SDS011;43322;52.230;5.702;2023-02-28T12:43:55;1.42;;;1.33;;
23718;SDS011;43322;52.230;5.702;2023-02-28T12:46:27;1.38;;;1.38;;
23718;SDS011;43322;52.230;5.702;2023-02-28T12:48:59;1.35;;;1.30;;
23718;SDS011;43322;52.230;5.702;2023-02-28T12:51:31;1.60;;;1.50;;
23718;SDS011;43322;52.230;5.702;2023-02-28T12:54:01;1.30;;;1.25;;
23718;SDS011;43322;52.230;5.702;2023-02-28T12:56:41;1.55;;;1.42;;
23718;SDS011;43322;52.230;5.702;2023-02-28T12:59:14;1.30;;;1.30;;
23718;SDS011;43322;52.230;5.702;2023-02-28T13:07:37;3.20;;;1.55;;
23718;SDS011;43322;52.230;5.702;2023-02-28T13:10:19;1.83;;;1.58;;
23718;SDS011;43322;52.230;5.702;2023-02-28T13:12:51;1.42;;;1.40;;
23718;SDS011;43322;52.230;5.702;2023-02-28T13:15:21;1.70;;;1.60;;
23718;SDS011;43322;52.230;5.702;2023-02-28T13:17:51;2.45;;;1.70;;
23718;SDS011;43322;52.230;5.702;2023-02-28T13:20:19;1.70;;;1.60;;
23718;SDS011;43322;52.230;5.702;2023-02-28T13:22:49;1.73;;;1.63;;
23718;SDS011;43322;52.230;5.702;2023-02-28T13:36:30;1.60;;;1.50;;
23718;SDS011;43322;52.230;5.702;2023-02-28T13:38:57;1.88;;;1.75;;
23718;SDS011;43322;52.230;5.702;2023-02-28T13:44:16;2.72;;;1.50;;
23718;SDS011;43322;52.230;5.702;2023-02-28T13:52:51;2.60;;;1.48;;
23718;SDS011;43322;52.230;5.702;2023-02-28T13:55:28;1.80;;;1.70;;
23718;SDS011;43322;52.230;5.702;2023-02-28T13:58:15;1.90;;;1.80;;
23718;SDS011;43322;52.230;5.702;2023-02-28T14:01:03;2.20;;;2.10;;
23718;SDS011;43322;52.230;5.702;2023-02-28T14:03:43;1.67;;;1.58;;
23718;SDS011;43322;52.230;5.702;2023-02-28T14:06:22;1.70;;;1.60;;
23718;SDS011;43322;52.230;5.702;2023-02-28T14:08:55;1.73;;;1.63;;
23718;SDS011;43322;52.230;5.702;2023-02-28T14:11:26;2.05;;;1.95;;
23718;SDS011;43322;52.230;5.702;2023-02-28T14:13:56;2.65;;;2.17;;
23718;SDS011;43322;52.230;5.702;2023-02-28T14:16:24;1.80;;;1.70;;
23718;SDS011;43322;52.230;5.702;2023-02-28T14:18:56;2.00;;;1.80;;
23718;SDS011;43322;52.230;5.702;2023-02-28T14:21:25;1.85;;;1.75;;
23718;SDS011;43322;52.230;5.702;2023-02-28T14:27:08;1.88;;;1.77;;
23718;SDS011;43322;52.230;5.702;2023-02-28T14:29:47;1.88;;;1.77;;
23718;SDS011;43322;52.230;5.702;2023-02-28T14:32:32;2.03;;;1.80;;
23718;SDS011;43322;52.230;5.702;2023-02-28T14:35:09;2.05;;;1.92;;
23718;SDS011;43322;52.230;5.702;2023-02-28T14:37:44;2.30;;;2.08;;
23718;SDS011;43322;52.230;5.702;2023-02-28T14:40:14;2.03;;;1.92;;
23718;SDS011;43322;52.230;5.702;2023-02-28T14:42:47;2.08;;;1.95;;
23718;SDS011;43322;52.230;5.702;2023-02-28T14:45:22;2.03;;;1.80;;
23718;SDS011;43322;52.230;5.702;2023-02-28T14:47:49;2.17;;;2.08;;
23718;SDS011;43322;52.230;5.702;2023-02-28T14:50:18;3.13;;;2.15;;
23718;SDS011;43322;52.230;5.702;2023-02-28T14:52:49;2.75;;;1.88;;
23718;SDS011;43322;52.230;5.702;2023-02-28T14:55:20;1.63;;;1.55;;
23718;SDS011;43322;52.230;5.702;2023-02-28T14:57:54;2.28;;;2.17;;
23718;SDS011;43322;52.230;5.702;2023-02-28T15:00:23;1.70;;;1.60;;
23718;SDS011;43322;52.230;5.702;2023-02-28T15:02:51;2.30;;;2.03;;
23718;SDS011;43322;52.230;5.702;2023-02-28T15:05:21;1.90;;;1.80;;
23718;SDS011;43322;52.230;5.702;2023-02-28T15:08:00;2.10;;;2.00;;
23718;SDS011;43322;52.230;5.702;2023-02-28T15:10:32;2.00;;;1.90;;
23718;SDS011;43322;52.230;5.702;2023-02-28T15:13:02;2.08;;;1.90;;
23718;SDS011;43322;52.230;5.702;2023-02-28T15:15:35;2.10;;;2.00;;
23718;SDS011;43322;52.230;5.702;2023-02-28T15:18:10;2.17;;;1.98;;
23718;SDS011;43322;52.230;5.702;2023-02-28T15:20:46;1.77;;;1.67;;
23718;SDS011;43322;52.230;5.702;2023-02-28T15:23:14;1.95;;;1.85;;
23718;SDS011;43322;52.230;5.702;2023-02-28T15:25:42;2.30;;;2.20;;
23718;SDS011;43322;52.230;5.702;2023-02-28T15:28:14;1.83;;;1.73;;
23718;SDS011;43322;52.230;5.702;2023-02-28T15:30:51;2.00;;;1.90;;
23718;SDS011;43322;52.230;5.702;2023-02-28T15:33:21;2.42;;;2.33;;
23718;SDS011;43322;52.230;5.702;2023-02-28T15:35:49;2.20;;;2.03;;
23718;SDS011;43322;52.230;5.702;2023-02-28T15:38:18;2.83;;;2.10;;
23718;SDS011;43322;52.230;5.702;2023-02-28T15:40:50;2.03;;;1.92;;
23718;SDS011;43322;52.230;5.702;2023-02-28T15:43:27;1.92;;;1.83;;
23718;SDS011;43322;52.230;5.702;2023-02-28T15:45:56;1.92;;;1.83;;
23718;SDS011;43322;52.230;5.702;2023-02-28T15:48:27;2.13;;;2.03;;
23718;SDS011;43322;52.230;5.702;2023-02-28T15:50:56;2.13;;;1.92;;
23718;SDS011;43322;52.230;5.702;2023-02-28T15:53:28;2.38;;;2.20;;
23718;SDS011;43322;52.230;5.702;2023-02-28T15:55:59;2.50;;;2.03;;
23718;SDS011;43322;52.230;5.702;2023-02-28T15:58:29;1.83;;;1.73;;
23718;SDS011;43322;52.230;5.702;2023-02-28T16:01:00;2.47;;;2.10;;
23718;SDS011;43322;52.230;5.702;2023-02-28T16:03:34;1.92;;;1.83;;
23718;SDS011;43322;52.230;5.702;2023-02-28T16:09:08;2.40;;;2.20;;